Time;durP1;ratioP1;P1;durP2;ratioP2;P2;SDS_P1;SDS_P2;PMS_P1;PMS_P2;Temp;Humidity;BMP_temperature;BMP_pressure;BME280_temperature;BME280_humidity;BME280_pressure;Samples;Min_cycle;Max_cycle;Signal;HPM_P1;HPM_P2
2022/02/10 00:03:25;;;;;;;15.77;10.10;;;;;;;;;;775282;181;919643;-62
2022/02/10 00:04:20;;;;;;;16.87;11.57;;;;;;;;;;773419;178;918842;-62
2022/02/10 00:06:48;;;;;;;18.13;12.30;;;;;;;;;;776378;179;919315;-61
2022/02/10 00:14:29;;;;;;;17.97;12.20;;;;;;;;;;771634;178;959120;-61
2022/02/10 00:17:58;;;;;;;19.67;12.17;;;;;;;;;;778637;178;919327;-62
2022/02/10 00:19:44;;;;;;;17.13;11.50;;;;;;;;;;775683;178;918487;-61
2022/02/10 00:22:14;;;;;;;17.80;10.70;;;;;;;;;;780588;178;917764;-62
2022/02/10 00:25:04;;;;;;;18.33;11.63;;;;;;;;;;759911;178;917948;-63
2022/02/10 00:34:42;;;;;;;17.13;11.17;;;;;;;;;;765763;181;920122;-61
2022/02/10 00:37:12;;;;;;;15.90;10.77;;;;;;;;;;770983;180;919976;-61
2022/02/10 00:40:12;;;;;;;20.80;11.67;;;;;;;;;;773226;177;919060;-62
2022/02/10 00:42:19;;;;;;;18.50;12.63;;;;;;;;;;772128;179;918683;-61
2022/02/10 00:44:45;;;;;;;21.77;13.10;;;;;;;;;;767462;177;919190;-62
2022/02/10 00:47:11;;;;;;;15.18;11.65;;;;;;;;;;771406;180;865899;-61
2022/02/10 00:49:36;;;;;;;18.87;12.00;;;;;;;;;;772331;177;918856;-62
2022/02/10 00:52:04;;;;;;;18.17;11.23;;;;;;;;;;771979;177;944694;-62
2022/02/10 00:54:28;;;;;;;17.77;11.57;;;;;;;;;;777187;180;917179;-63
2022/02/10 00:56:58;;;;;;;22.73;13.10;;;;;;;;;;764005;181;919285;-61
2022/02/10 00:59:34;;;;;;;21.15;13.60;;;;;;;;;;771257;181;919965;-62
2022/02/10 01:07:04;;;;;;;15.03;9.90;;;;;;;;;;767855;180;919301;-62
2022/02/10 01:12:27;;;;;;;17.27;10.65;;;;;;;;;;774363;178;918958;-62
2022/02/10 01:30:12;;;;;;;14.97;10.17;;;;;;;;;;768990;180;919206;-61
2022/02/10 01:32:38;;;;;;;18.87;11.27;;;;;;;;;;772770;181;918903;-62
2022/02/10 01:35:07;;;;;;;15.87;10.47;;;;;;;;;;780438;178;918894;-62
2022/02/10 01:37:30;;;;;;;17.50;9.63;;;;;;;;;;776649;180;918742;-62
2022/02/10 01:40:07;;;;;;;15.50;9.90;;;;;;;;;;764342;180;919183;-62
2022/02/10 01:58:00;;;;;;;13.10;9.65;;;;;;;;;;778055;180;1021073;-62
2022/02/10 02:05:25;;;;;;;16.30;9.10;;;;;;;;;;767606;178;919603;-63
2022/02/10 02:07:40;;;;;;;18.93;10.00;;;;;;;;;;775820;180;920199;-62
2022/02/10 02:10:06;;;;;;;14.82;10.32;;;;;;;;;;768582;181;921204;-62
2022/02/10 02:12:32;;;;;;;15.83;10.37;;;;;;;;;;771129;178;919122;-62
2022/02/10 02:14:58;;;;;;;17.53;10.87;;;;;;;;;;771622;178;918916;-63
2022/02/10 02:17:23;;;;;;;13.60;10.07;;;;;;;;;;767746;180;919604;-62
2022/02/10 02:19:49;;;;;;;13.37;9.60;;;;;;;;;;762950;180;920492;-63
2022/02/10 02:22:18;;;;;;;13.00;9.63;;;;;;;;;;774111;180;918018;-63
2022/02/10 02:24:41;;;;;;;16.30;10.53;;;;;;;;;;777188;181;916283;-62
2022/02/10 02:27:09;;;;;;;15.40;9.77;;;;;;;;;;773276;180;919669;-63
2022/02/10 02:29:39;;;;;;;12.90;8.43;;;;;;;;;;775854;177;919803;-62
2022/02/10 02:32:04;;;;;;;13.10;9.07;;;;;;;;;;774606;177;1021132;-62
2022/02/10 02:39:54;;;;;;;15.67;11.03;;;;;;;;;;767278;178;919511;-62
2022/02/10 03:04:56;;;;;;;14.43;9.23;;;;;;;;;;771893;177;1020684;-62
2022/02/10 03:07:27;;;;;;;15.13;10.57;;;;;;;;;;774329;177;919696;-62
2022/02/10 03:09:52;;;;;;;12.37;9.10;;;;;;;;;;770999;181;919569;-63
2022/02/10 03:12:05;;;;;;;15.55;9.35;;;;;;;;;;762801;180;1138222;-62
2022/02/10 03:14:36;;;;;;;15.43;10.02;;;;;;;;;;762524;181;1018109;-63
2022/02/10 03:17:25;;;;;;;15.40;10.90;;;;;;;;;;759947;184;919950;-62
2022/02/10 03:19:41;;;;;;;17.20;10.50;;;;;;;;;;758915;182;918683;-63
2022/02/10 04:00:13;;;;;;;16.70;9.60;;;;;;;;;;773313;179;919758;-62
2022/02/10 04:08:09;;;;;;;15.87;9.90;;;;;;;;;;766953;181;914217;-62
2022/02/10 04:10:46;;;;;;;14.03;9.77;;;;;;;;;;770030;179;969750;-63
2022/02/10 04:15:39;;;;;;;15.70;10.20;;;;;;;;;;774146;179;913631;-62
2022/02/10 04:18:30;;;;;;;13.87;10.43;;;;;;;;;;775523;178;910875;-62
2022/02/10 04:20:48;;;;;;;19.33;10.80;;;;;;;;;;772226;177;916289;-62
2022/02/10 04:25:57;;;;;;;13.70;9.83;;;;;;;;;;765839;179;916547;-63
2022/02/10 04:28:25;;;;;;;15.07;10.23;;;;;;;;;;778707;180;916195;-62
2022/02/10 04:42:36;;;;;;;15.75;10.27;;;;;;;;;;778899;177;915147;-62
2022/02/10 04:54:14;;;;;;;13.67;10.37;;;;;;;;;;770924;180;916332;-63
2022/02/10 04:56:26;;;;;;;16.70;10.83;;;;;;;;;;768385;180;993910;-63
2022/02/10 04:58:54;;;;;;;14.50;10.30;;;;;;;;;;766449;181;918798;-63
2022/02/10 05:01:58;;;;;;;15.50;10.87;;;;;;;;;;767831;177;913928;-64
2022/02/10 05:04:22;;;;;;;18.90;11.77;;;;;;;;;;765614;180;917659;-63
2022/02/10 05:18:12;;;;;;;67.70;32.33;;;;;;;;;;783235;178;926886;-63
2022/02/10 05:22:36;;;;;;;37.73;16.83;;;;;;;;;;782106;180;618816;-64
2022/02/10 05:31:21;;;;;;;26.37;15.07;;;;;;;;;;776212;179;632591;-63
2022/02/10 05:32:34;;;;;;;28.00;16.77;;;;;;;;;;771866;180;914485;-63
2022/02/10 05:34:55;;;;;;;17.97;12.53;;;;;;;;;;774253;180;918900;-62
2022/02/10 05:37:11;;;;;;;19.37;13.73;;;;;;;;;;772458;178;1022031;-63
2022/02/10 05:39:42;;;;;;;24.13;14.23;;;;;;;;;;773241;177;919856;-63
2022/02/10 05:42:28;;;;;;;17.13;11.87;;;;;;;;;;781191;180;913637;-63
2022/02/10 05:44:47;;;;;;;30.93;21.03;;;;;;;;;;769907;179;918957;-64
2022/02/10 05:47:29;;;;;;;15.77;11.40;;;;;;;;;;762967;182;919593;-63
2022/02/10 06:00:16;;;;;;;29.93;20.77;;;;;;;;;;772439;180;911319;-64
2022/02/10 06:39:26;;;;;;;26.53;17.03;;;;;;;;;;778866;180;918467;-63
2022/02/10 06:42:48;;;;;;;27.00;20.40;;;;;;;;;;771778;180;919363;-63
2022/02/10 06:47:06;;;;;;;40.45;28.05;;;;;;;;;;769935;179;996537;-64
2022/02/10 06:48:57;;;;;;;45.97;29.50;;;;;;;;;;763240;180;919626;-64
2022/02/10 06:51:12;;;;;;;29.50;21.50;;;;;;;;;;760385;182;922291;-64
2022/02/10 06:53:43;;;;;;;24.57;17.23;;;;;;;;;;772399;180;919647;-64
2022/02/10 07:03:54;;;;;;;24.13;17.00;;;;;;;;;;765485;178;920971;-61
2022/02/10 07:06:56;;;;;;;29.50;18.07;;;;;;;;;;778344;178;918316;-60
2022/02/10 07:09:04;;;;;;;22.63;14.97;;;;;;;;;;771060;179;915796;-60
2022/02/10 07:17:03;;;;;;;22.30;14.63;;;;;;;;;;775080;177;910277;-61
2022/02/10 07:47:47;;;;;;;27.00;17.13;;;;;;;;;;767063;177;918757;-62
2022/02/10 07:50:06;;;;;;;27.27;17.60;;;;;;;;;;774149;179;918483;-62
2022/02/10 08:25:59;;;;;;;25.10;17.50;;;;;;;;;;773312;180;918256;-62
2022/02/10 08:26:09;;;;;;;17.70;12.40;;;;;;;;;;773286;178;919283;-61
2022/02/10 08:29:26;;;;;;;19.60;12.17;;;;;;;;;;781040;177;919631;-61
2022/02/10 08:52:08;;;;;;;12.43;8.80;;;;;;;;;;754819;184;919098;-61
2022/02/10 08:54:18;;;;;;;13.00;7.57;;;;;;;;;;769451;180;919706;-61
2022/02/10 08:56:03;;;;;;;12.77;8.40;;;;;;;;;;772110;180;918382;-61
2022/02/10 09:03:54;;;;;;;13.23;8.33;;;;;;;;;;769031;181;918521;-60
2022/02/10 09:06:25;;;;;;;10.88;6.70;;;;;;;;;;773002;178;918693;-61
2022/02/10 09:09:10;;;;;;;9.07;5.90;;;;;;;;;;777018;180;918683;-61
2022/02/10 09:19:33;;;;;;;6.80;5.53;;;;;;;;;;774934;179;919614;-61
2022/02/10 09:22:21;;;;;;;10.07;6.90;;;;;;;;;;767171;180;918113;-61
2022/02/10 09:25:19;;;;;;;13.30;6.70;;;;;;;;;;763866;181;919184;-60
2022/02/10 09:27:54;;;;;;;7.90;6.40;;;;;;;;;;772751;179;919629;-60
2022/02/10 09:55:26;;;;;;;9.25;6.35;;;;;;;;;;747692;182;919353;-61
2022/02/10 09:57:52;;;;;;;8.93;5.60;;;;;;;;;;766083;180;922580;-60
2022/02/10 10:00:28;;;;;;;8.73;5.40;;;;;;;;;;773339;178;919162;-61
2022/02/10 10:02:52;;;;;;;10.93;7.67;;;;;;;;;;773005;180;918302;-60
2022/02/10 10:05:27;;;;;;;6.90;3.67;;;;;;;;;;772970;179;1021109;-61
2022/02/10 10:07:54;;;;;;;5.90;3.90;;;;;;;;;;772016;178;919178;-61
2022/02/10 10:10:53;;;;;;;6.70;5.03;;;;;;;;;;763333;180;919446;-61
2022/02/10 10:13:21;;;;;;;9.70;6.37;;;;;;;;;;767712;177;919082;-60
2022/02/10 10:15:32;;;;;;;8.10;4.83;;;;;;;;;;779102;177;918911;-60
2022/02/10 10:18:07;;;;;;;7.87;6.07;;;;;;;;;;770274;180;919890;-60
2022/02/10 10:20:37;;;;;;;7.70;5.00;;;;;;;;;;771409;177;919028;-60
2022/02/10 10:23:10;;;;;;;10.03;7.00;;;;;;;;;;771053;177;919992;-60
2022/02/10 10:25:48;;;;;;;5.25;4.28;;;;;;;;;;769507;177;919575;-60
2022/02/10 10:44:14;;;;;;;8.83;5.50;;;;;;;;;;778308;180;920539;-61
2022/02/10 10:47:26;;;;;;;10.57;6.00;;;;;;;;;;779050;180;920187;-61
2022/02/10 10:49:24;;;;;;;4.50;3.23;;;;;;;;;;765328;180;919302;-61
2022/02/10 10:51:37;;;;;;;7.65;5.68;;;;;;;;;;772756;177;1486568;-60
2022/02/10 10:54:03;;;;;;;10.50;6.70;;;;;;;;;;773857;177;919312;-61
2022/02/10 10:56:24;;;;;;;10.57;6.63;;;;;;;;;;766335;179;919208;-61
2022/02/10 10:59:10;;;;;;;12.75;5.47;;;;;;;;;;763123;181;929552;-61
2022/02/10 11:05:01;;;;;;;15.70;7.50;;;;;;;;;;768656;180;919395;-60
2022/02/10 11:37:39;;;;;;;9.77;7.13;;;;;;;;;;773560;179;919557;-61
2022/02/10 11:40:04;;;;;;;7.57;6.15;;;;;;;;;;765754;181;918985;-60
2022/02/10 11:42:40;;;;;;;10.37;6.37;;;;;;;;;;771249;178;918899;-61
2022/02/10 11:47:58;;;;;;;7.50;6.37;;;;;;;;;;762772;181;918462;-62
2022/02/10 12:01:46;;;;;;;7.83;5.50;;;;;;;;;;779654;179;614647;-63
2022/02/10 12:32:10;;;;;;;8.37;5.93;;;;;;;;;;768492;180;917969;-61
2022/02/10 12:34:44;;;;;;;9.33;6.47;;;;;;;;;;766517;180;918873;-61
2022/02/10 12:36:30;;;;;;;11.07;7.10;;;;;;;;;;773388;180;919002;-62
2022/02/10 12:43:50;;;;;;;11.53;6.80;;;;;;;;;;770163;180;921528;-61
2022/02/10 13:28:09;;;;;;;8.63;4.93;;;;;;;;;;774035;178;919974;-62
2022/02/10 13:30:28;;;;;;;10.63;5.80;;;;;;;;;;772600;178;920566;-61
2022/02/10 13:36:02;;;;;;;11.97;5.40;;;;;;;;;;766992;178;921553;-61
2022/02/10 14:13:21;;;;;;;7.70;4.57;;;;;;;;;;776933;180;919525;-61
2022/02/10 14:16:01;;;;;;;6.80;5.03;;;;;;;;;;772223;178;919536;-63
2022/02/10 14:18:25;;;;;;;6.07;4.30;;;;;;;;;;773544;179;919795;-61
2022/02/10 14:21:07;;;;;;;6.70;4.27;;;;;;;;;;771604;179;919495;-62
2022/02/10 14:25:41;;;;;;;6.22;4.07;;;;;;;;;;772131;179;919165;-61
2022/02/10 14:26:02;;;;;;;7.30;4.50;;;;;;;;;;776785;179;864952;-62
2022/02/10 14:28:21;;;;;;;8.37;4.53;;;;;;;;;;775259;180;919782;-62
2022/02/10 14:30:47;;;;;;;8.77;5.05;;;;;;;;;;778531;177;918125;-62
2022/02/10 14:33:14;;;;;;;7.70;4.90;;;;;;;;;;774158;179;918978;-62
2022/02/10 14:35:54;;;;;;;5.70;3.87;;;;;;;;;;780476;180;916640;-62
2022/02/10 14:38:56;;;;;;;10.17;5.47;;;;;;;;;;774395;177;1021183;-62
2022/02/10 15:11:51;;;;;;;8.27;5.70;;;;;;;;;;773142;177;918743;-62
2022/02/10 15:17:11;;;;;;;9.10;5.33;;;;;;;;;;776087;178;919145;-61
2022/02/10 15:32:50;;;;;;;9.00;5.97;;;;;;;;;;772949;177;918846;-61
2022/02/10 15:50:25;;;;;;;11.00;7.43;;;;;;;;;;773612;178;1019477;-62
2022/02/10 15:53:01;;;;;;;11.95;7.70;;;;;;;;;;775227;181;919491;-61
2022/02/10 15:55:33;;;;;;;9.80;6.67;;;;;;;;;;771661;180;915402;-62
2022/02/10 16:13:55;;;;;;;12.80;7.80;;;;;;;;;;774323;178;915822;-61
2022/02/10 16:16:35;;;;;;;10.23;7.95;;;;;;;;;;768042;180;994725;-62
2022/02/10 16:18:09;;;;;;;11.10;7.20;;;;;;;;;;772874;180;972657;-62
2022/02/10 16:20:32;;;;;;;11.33;7.70;;;;;;;;;;772956;179;919332;-61
2022/02/10 16:23:01;;;;;;;11.33;7.10;;;;;;;;;;774597;180;919177;-62
2022/02/10 16:25:26;;;;;;;12.50;7.17;;;;;;;;;;765422;180;919704;-61
2022/02/10 16:27:56;;;;;;;10.73;8.10;;;;;;;;;;773769;181;919584;-61
2022/02/10 16:30:18;;;;;;;10.47;7.10;;;;;;;;;;777839;180;919217;-61
2022/02/10 16:32:43;;;;;;;10.67;7.23;;;;;;;;;;770829;180;926434;-61
2022/02/10 16:35:08;;;;;;;10.53;6.77;;;;;;;;;;774618;180;919613;-62
2022/02/10 16:37:35;;;;;;;12.63;8.10;;;;;;;;;;765234;181;919635;-61
2022/02/10 16:40:00;;;;;;;12.23;8.50;;;;;;;;;;770978;178;919233;-61
2022/02/10 16:42:26;;;;;;;10.30;6.60;;;;;;;;;;772456;178;919538;-61
2022/02/10 16:44:52;;;;;;;12.75;7.10;;;;;;;;;;772997;180;1020934;-62
2022/02/10 16:47:18;;;;;;;13.80;7.90;;;;;;;;;;769181;179;918694;-61
2022/02/10 16:49:49;;;;;;;19.23;7.47;;;;;;;;;;771909;181;918817;-61
2022/02/10 16:52:18;;;;;;;13.83;8.37;;;;;;;;;;770263;181;924708;-62
2022/02/10 16:54:43;;;;;;;11.33;6.93;;;;;;;;;;777359;177;919166;-61
2022/02/10 16:57:09;;;;;;;10.80;7.50;;;;;;;;;;772178;180;920275;-61
2022/02/10 16:59:49;;;;;;;10.30;7.63;;;;;;;;;;771933;179;919643;-61
2022/02/10 17:05:22;;;;;;;8.67;6.03;;;;;;;;;;770679;177;920570;-61
2022/02/10 17:15:55;;;;;;;8.57;5.80;;;;;;;;;;772965;177;919485;-61
2022/02/10 17:17:45;;;;;;;11.47;6.57;;;;;;;;;;761983;180;919074;-61
2022/02/10 17:20:12;;;;;;;10.60;5.73;;;;;;;;;;774607;177;916941;-61
2022/02/10 17:25:12;;;;;;;11.43;6.75;;;;;;;;;;771494;181;919394;-62
2022/02/10 17:27:39;;;;;;;8.60;6.57;;;;;;;;;;771232;178;918295;-62
2022/02/10 17:30:35;;;;;;;12.87;5.60;;;;;;;;;;768961;180;918356;-61
2022/02/10 17:33:03;;;;;;;8.60;5.73;;;;;;;;;;775728;179;918352;-61
2022/02/10 17:35:21;;;;;;;8.10;5.50;;;;;;;;;;774582;177;917589;-61
2022/02/10 17:45:39;;;;;;;116.57;46.37;;;;;;;;;;768155;177;919743;-60
2022/02/10 17:53:05;;;;;;;36.70;17.40;;;;;;;;;;773730;180;913204;-61
2022/02/10 17:55:29;;;;;;;16.30;10.90;;;;;;;;;;771199;179;920471;-61
2022/02/10 17:57:55;;;;;;;15.03;9.80;;;;;;;;;;768037;179;919669;-61
2022/02/10 18:00:23;;;;;;;15.07;9.40;;;;;;;;;;780412;180;978485;-61
2022/02/10 18:02:48;;;;;;;15.80;8.40;;;;;;;;;;773535;180;918409;-61
2022/02/10 18:05:36;;;;;;;11.90;7.97;;;;;;;;;;763239;181;919137;-61
2022/02/10 18:07:41;;;;;;;13.23;8.30;;;;;;;;;;779438;180;1021653;-60
2022/02/10 18:13:29;;;;;;;17.30;8.87;;;;;;;;;;773945;180;920251;-61
2022/02/10 18:15:39;;;;;;;12.32;8.18;;;;;;;;;;776347;178;920143;-61
2022/02/10 18:18:04;;;;;;;10.70;7.87;;;;;;;;;;775466;177;919464;-60
2022/02/10 18:20:33;;;;;;;16.13;8.93;;;;;;;;;;776444;177;919134;-60
2022/02/10 18:25:42;;;;;;;14.13;9.30;;;;;;;;;;771382;180;1020342;-61
2022/02/10 18:28:07;;;;;;;14.48;8.40;;;;;;;;;;762447;181;923805;-60
2022/02/10 18:30:26;;;;;;;16.10;8.03;;;;;;;;;;770560;181;919356;-61
2022/02/10 18:37:35;;;;;;;17.47;8.70;;;;;;;;;;772028;180;918526;-61
2022/02/10 19:05:59;;;;;;;10.17;7.70;;;;;;;;;;769681;177;1021531;-61
2022/02/10 19:08:21;;;;;;;14.80;11.20;;;;;;;;;;772696;180;918365;-60
2022/02/10 19:10:45;;;;;;;17.63;12.30;;;;;;;;;;779708;179;619514;-61
2022/02/10 19:13:03;;;;;;;15.00;9.90;;;;;;;;;;774669;179;919452;-61
2022/02/10 19:15:33;;;;;;;13.30;9.30;;;;;;;;;;778968;177;619555;-61
2022/02/10 19:17:59;;;;;;;17.13;10.13;;;;;;;;;;777883;177;918855;-60
2022/02/10 19:20:26;;;;;;;16.50;10.70;;;;;;;;;;770520;180;918843;-60
2022/02/10 19:22:52;;;;;;;10.87;8.67;;;;;;;;;;775068;180;918682;-60
2022/02/10 19:25:19;;;;;;;13.48;9.57;;;;;;;;;;774489;178;920414;-60
2022/02/10 19:27:44;;;;;;;17.77;11.53;;;;;;;;;;779609;178;920167;-60
2022/02/10 19:30:10;;;;;;;21.62;11.07;;;;;;;;;;770851;180;919945;-61
2022/02/10 19:32:37;;;;;;;16.57;11.77;;;;;;;;;;771250;180;919754;-60
2022/02/10 19:35:02;;;;;;;19.80;13.20;;;;;;;;;;777873;180;919229;-60
2022/02/10 19:37:30;;;;;;;19.20;12.33;;;;;;;;;;768384;180;924468;-62
2022/02/10 19:39:58;;;;;;;17.00;11.13;;;;;;;;;;771582;180;1021391;-61
2022/02/10 19:42:21;;;;;;;16.80;11.27;;;;;;;;;;777463;180;919293;-61
2022/02/10 19:44:47;;;;;;;17.40;10.50;;;;;;;;;;772038;180;1015731;-60
2022/02/10 19:47:12;;;;;;;15.93;10.60;;;;;;;;;;772653;178;919793;-60
2022/02/10 19:49:40;;;;;;;24.48;11.57;;;;;;;;;;777309;181;919314;-60
2022/02/10 19:52:06;;;;;;;14.90;10.17;;;;;;;;;;768654;180;927055;-60
2022/02/10 19:54:36;;;;;;;18.03;10.23;;;;;;;;;;773144;180;919330;-60
2022/02/10 19:56:57;;;;;;;12.70;9.30;;;;;;;;;;770593;180;919177;-59
2022/02/10 19:59:26;;;;;;;13.77;9.40;;;;;;;;;;776063;181;919898;-60
2022/02/10 20:01:50;;;;;;;17.60;11.05;;;;;;;;;;772624;178;919537;-60
2022/02/10 20:04:14;;;;;;;18.57;11.23;;;;;;;;;;761867;182;918646;-60
2022/02/10 20:06:40;;;;;;;19.10;11.80;;;;;;;;;;778295;180;919301;-60
2022/02/10 20:09:06;;;;;;;16.00;13.00;;;;;;;;;;763411;180;920524;-60
2022/02/10 20:11:32;;;;;;;15.70;11.18;;;;;;;;;;766682;179;920854;-60
2022/02/10 20:13:58;;;;;;;18.60;12.07;;;;;;;;;;775516;179;918020;-60
2022/02/10 20:16:24;;;;;;;17.70;12.15;;;;;;;;;;774163;180;920267;-60
2022/02/10 20:18:50;;;;;;;18.07;11.70;;;;;;;;;;761364;180;915716;-61
2022/02/10 20:21:16;;;;;;;19.70;12.10;;;;;;;;;;769908;180;1041211;-60
2022/02/10 20:23:41;;;;;;;20.87;12.20;;;;;;;;;;780729;177;919428;-60
2022/02/10 20:26:07;;;;;;;22.80;12.93;;;;;;;;;;775122;180;920147;-59
2022/02/10 20:28:33;;;;;;;18.63;12.77;;;;;;;;;;774047;177;919679;-60
2022/02/10 20:30:59;;;;;;;19.40;12.80;;;;;;;;;;766101;180;933282;-60
2022/02/10 20:33:27;;;;;;;26.60;12.90;;;;;;;;;;768343;181;918444;-60
2022/02/10 20:35:55;;;;;;;20.60;13.00;;;;;;;;;;769487;180;920600;-60
2022/02/10 20:38:19;;;;;;;23.53;12.47;;;;;;;;;;780452;180;918858;-60
2022/02/10 20:40:45;;;;;;;20.30;12.53;;;;;;;;;;774522;180;918855;-60
2022/02/10 20:43:09;;;;;;;16.80;11.07;;;;;;;;;;773081;179;919488;-60
2022/02/10 20:45:35;;;;;;;22.53;11.10;;;;;;;;;;773073;180;918866;-60
2022/02/10 20:48:00;;;;;;;18.30;10.93;;;;;;;;;;778983;180;924962;-60
2022/02/10 20:50:26;;;;;;;17.07;10.93;;;;;;;;;;774455;180;918770;-60
2022/02/10 20:52:52;;;;;;;17.30;10.93;;;;;;;;;;772501;181;918988;-60
2022/02/10 20:55:17;;;;;;;15.97;10.93;;;;;;;;;;777728;181;919083;-61
2022/02/10 20:57:44;;;;;;;17.43;11.10;;;;;;;;;;771067;181;1224414;-60
2022/02/10 21:00:10;;;;;;;17.80;11.30;;;;;;;;;;769190;180;919117;-61
2022/02/10 21:02:40;;;;;;;19.43;11.30;;;;;;;;;;780282;181;919472;-60
2022/02/10 21:05:15;;;;;;;19.07;10.97;;;;;;;;;;775039;181;918984;-60
2022/02/10 21:07:35;;;;;;;17.27;10.70;;;;;;;;;;772148;179;918803;-60
2022/02/10 21:09:59;;;;;;;15.83;9.93;;;;;;;;;;772002;181;919145;-60
2022/02/10 21:12:20;;;;;;;16.10;10.70;;;;;;;;;;773601;180;922088;-60
2022/02/10 21:14:46;;;;;;;23.03;13.20;;;;;;;;;;758251;178;918747;-60
2022/02/10 21:17:14;;;;;;;32.90;18.43;;;;;;;;;;758506;180;920075;-60
2022/02/10 21:19:38;;;;;;;49.77;27.67;;;;;;;;;;767300;180;918527;-60
2022/02/10 21:22:12;;;;;;;24.63;15.40;;;;;;;;;;774019;178;920269;-61
2022/02/10 21:24:33;;;;;;;27.30;15.27;;;;;;;;;;775366;179;916767;-60
2022/02/10 21:27:35;;;;;;;20.17;11.80;;;;;;;;;;771747;181;916247;-60
2022/02/10 21:29:40;;;;;;;18.37;12.03;;;;;;;;;;764530;180;914590;-60
2022/02/10 21:32:06;;;;;;;24.50;11.57;;;;;;;;;;772361;179;916880;-60
2022/02/10 21:34:39;;;;;;;16.07;9.97;;;;;;;;;;773792;178;1019511;-61
2022/02/10 21:37:06;;;;;;;20.70;10.80;;;;;;;;;;776998;177;914422;-60
2022/02/10 21:39:37;;;;;;;16.93;10.80;;;;;;;;;;764926;181;919202;-60
2022/02/10 21:42:51;;;;;;;15.93;9.80;;;;;;;;;;774275;180;918825;-60
2022/02/10 21:45:39;;;;;;;13.50;9.07;;;;;;;;;;771800;179;920083;-60
2022/02/10 21:55:11;;;;;;;14.03;9.63;;;;;;;;;;780251;180;918998;-61
2022/02/10 21:57:34;;;;;;;11.63;9.20;;;;;;;;;;770162;180;943639;-61
2022/02/10 22:00:13;;;;;;;14.87;9.10;;;;;;;;;;758951;181;919769;-61
2022/02/10 22:06:12;;;;;;;12.73;7.90;;;;;;;;;;770891;179;1019718;-61
2022/02/10 22:10:25;;;;;;;18.87;10.47;;;;;;;;;;772559;178;915947;-61
2022/02/10 22:16:27;;;;;;;15.57;9.60;;;;;;;;;;774440;178;982018;-61
2022/02/10 22:20:10;;;;;;;13.95;8.88;;;;;;;;;;780252;178;918348;-60
2022/02/10 22:22:37;;;;;;;12.60;7.80;;;;;;;;;;774853;181;919535;-60
2022/02/10 22:25:02;;;;;;;13.50;6.90;;;;;;;;;;762061;183;918796;-60
2022/02/10 22:27:28;;;;;;;13.37;8.10;;;;;;;;;;776315;177;919366;-60
2022/02/10 22:29:54;;;;;;;11.70;8.03;;;;;;;;;;763221;180;920272;-61
2022/02/10 22:32:28;;;;;;;9.07;7.10;;;;;;;;;;768903;179;919666;-60
2022/02/10 22:34:51;;;;;;;10.73;7.70;;;;;;;;;;773865;177;919269;-60
2022/02/10 22:37:13;;;;;;;15.20;8.83;;;;;;;;;;766349;180;919272;-61
2022/02/10 22:39:40;;;;;;;16.70;9.40;;;;;;;;;;757516;180;919736;-61
2022/02/10 22:42:03;;;;;;;14.23;8.43;;;;;;;;;;768804;179;919342;-60
2022/02/10 22:44:28;;;;;;;13.50;9.00;;;;;;;;;;780094;180;919292;-60
2022/02/10 22:46:54;;;;;;;14.60;9.23;;;;;;;;;;776527;176;922412;-60
2022/02/10 22:49:20;;;;;;;16.80;8.53;;;;;;;;;;774138;177;918921;-61
2022/02/10 22:51:46;;;;;;;14.10;8.93;;;;;;;;;;773318;180;1020449;-60
2022/02/10 22:54:14;;;;;;;15.23;8.37;;;;;;;;;;767846;180;920231;-60
2022/02/10 22:56:39;;;;;;;12.97;9.13;;;;;;;;;;764706;181;918744;-60
2022/02/10 22:59:05;;;;;;;12.67;9.20;;;;;;;;;;769197;181;919285;-61
2022/02/10 23:01:31;;;;;;;15.00;9.47;;;;;;;;;;777413;180;919391;-60
2022/02/10 23:03:57;;;;;;;14.13;9.10;;;;;;;;;;770117;178;920343;-60
2022/02/10 23:06:23;;;;;;;14.30;9.23;;;;;;;;;;763581;182;919611;-60
2022/02/10 23:08:49;;;;;;;22.07;10.43;;;;;;;;;;779467;178;927831;-61
2022/02/10 23:11:17;;;;;;;20.53;10.40;;;;;;;;;;765268;180;919153;-60
2022/02/10 23:13:44;;;;;;;14.00;7.73;;;;;;;;;;765235;182;920060;-61
2022/02/10 23:16:06;;;;;;;11.90;8.80;;;;;;;;;;769521;181;919364;-60
2022/02/10 23:18:32;;;;;;;13.20;9.23;;;;;;;;;;767875;181;926020;-61
2022/02/10 23:20:58;;;;;;;15.40;10.23;;;;;;;;;;766020;180;919373;-60
2022/02/10 23:23:24;;;;;;;20.53;10.70;;;;;;;;;;770819;180;919265;-60
2022/02/10 23:25:50;;;;;;;16.55;10.65;;;;;;;;;;780613;178;918407;-61
2022/02/10 23:28:16;;;;;;;18.03;9.37;;;;;;;;;;773307;180;919096;-61
2022/02/10 23:30:46;;;;;;;17.30;9.97;;;;;;;;;;775747;178;919199;-61
2022/02/10 23:33:16;;;;;;;15.48;10.25;;;;;;;;;;778667;180;923568;-61
2022/02/10 23:38:05;;;;;;;15.52;9.93;;;;;;;;;;768135;181;920681;-61
2022/02/10 23:40:33;;;;;;;16.50;9.80;;;;;;;;;;766571;180;923865;-61
2022/02/10 23:42:57;;;;;;;14.83;9.83;;;;;;;;;;774916;178;918254;-61
2022/02/10 23:45:26;;;;;;;17.33;10.70;;;;;;;;;;774447;180;919548;-61
2022/02/10 23:47:48;;;;;;;16.00;9.50;;;;;;;;;;774483;179;917954;-60
2022/02/10 23:50:18;;;;;;;15.20;11.07;;;;;;;;;;777378;181;918956;-62
2022/02/10 23:52:41;;;;;;;13.87;9.70;;;;;;;;;;773597;180;918839;-61
2022/02/10 23:55:13;;;;;;;16.47;10.57;;;;;;;;;;772047;177;918979;-61
2022/02/10 23:57:44;;;;;;;13.20;9.40;;;;;;;;;;771236;181;919525;-61
